createdAt,value
2019-04-11T00:03:06.593Z,7.78
2019-04-11T00:05:32.815Z,7.74
2019-04-11T00:07:59.727Z,7.77
2019-04-11T00:10:26.490Z,7.75
2019-04-11T00:12:52.722Z,7.76
2019-04-11T00:15:18.769Z,7.74
2019-04-11T00:17:46.002Z,7.73
2019-04-11T00:20:12.350Z,7.72
2019-04-11T00:22:38.543Z,7.75
2019-04-11T00:25:04.839Z,7.76
2019-04-11T00:27:30.887Z,7.75
2019-04-11T00:29:57.029Z,7.76
2019-04-11T00:32:23.302Z,7.79
2019-04-11T00:34:49.516Z,7.75
2019-04-11T00:37:16.890Z,7.74
2019-04-11T00:39:43.742Z,7.72
2019-04-11T00:42:10.331Z,7.75
2019-04-11T00:44:36.560Z,7.76
2019-04-11T00:47:02.714Z,7.68
2019-04-11T00:49:28.865Z,7.68
2019-04-11T00:51:56.134Z,7.70
2019-04-11T00:54:22.675Z,7.71
2019-04-11T00:56:48.956Z,7.66
2019-04-11T00:59:15.984Z,7.63
2019-04-11T01:01:43.006Z,7.62
2019-04-11T01:04:09.676Z,7.59
2019-04-11T01:06:36.523Z,7.52
2019-04-11T01:09:04.845Z,7.42
2019-04-11T01:11:32.022Z,7.45
2019-04-11T01:13:59.406Z,7.48
2019-04-11T01:19:07.240Z,7.33
2019-04-11T01:21:34.815Z,7.25
2019-04-11T01:24:01.718Z,7.15
2019-04-11T01:26:28.269Z,7.16
2019-04-11T01:28:55.383Z,7.20
2019-04-11T01:31:23.495Z,7.22
2019-04-11T01:33:49.739Z,7.22
2019-04-11T01:36:15.848Z,7.17
2019-04-11T01:41:29.001Z,7.29
2019-04-11T01:44:00.956Z,7.33
2019-04-11T01:46:24.320Z,7.31
2019-04-11T01:48:55.686Z,7.33
2019-04-11T01:51:21.805Z,7.32
2019-04-11T01:53:48.893Z,7.31
2019-04-11T01:56:15.150Z,7.05
2019-04-11T01:58:41.288Z,7.08
2019-04-11T02:01:09.401Z,7.15
2019-04-11T02:03:49.746Z,7.21
2019-04-11T02:06:16.432Z,7.06
2019-04-11T02:08:43.775Z,7.10
2019-04-11T02:11:10.117Z,7.12
2019-04-11T02:13:36.359Z,7.03
2019-04-11T02:16:02.978Z,7.06
2019-04-11T02:18:29.728Z,6.96
2019-04-11T02:20:55.913Z,6.70
2019-04-11T02:28:55.420Z,6.77
2019-04-11T02:31:22.928Z,6.77
2019-04-11T02:33:51.079Z,6.73
2019-04-11T02:36:18.791Z,6.65
2019-04-11T02:38:48.952Z,6.72
2019-04-11T02:41:14.208Z,6.68
2019-04-11T02:43:42.772Z,6.55
2019-04-11T02:46:17.239Z,6.46
2019-04-11T02:48:37.658Z,6.47
2019-04-11T02:51:05.706Z,6.56
2019-04-11T02:53:34.164Z,6.53
2019-04-11T02:56:01.137Z,6.41
2019-04-11T02:58:30.273Z,6.35
2019-04-11T03:00:59.393Z,6.32
2019-04-11T03:03:25.286Z,6.24
2019-04-11T03:05:53.287Z,6.02
2019-04-11T03:08:21.978Z,6.13
2019-04-11T03:10:49.224Z,6.14
2019-04-11T03:13:16.850Z,5.81
2019-04-11T03:16:00.471Z,5.67
2019-04-11T03:18:18.547Z,5.67
2019-04-11T03:20:47.783Z,5.61
2019-04-11T03:23:10.137Z,5.72
2019-04-11T03:25:36.386Z,5.64
2019-04-11T03:28:02.904Z,5.62
2019-04-11T03:30:51.781Z,5.69
2019-04-11T03:38:21.218Z,5.95
2019-04-11T03:40:36.165Z,6.01
2019-04-11T03:43:01.359Z,6.02
2019-04-11T03:45:36.407Z,5.93
2019-04-11T03:48:03.737Z,5.79
2019-04-11T03:50:18.817Z,5.75
2019-04-11T03:52:43.020Z,5.79
2019-04-11T03:55:11.075Z,5.82
2019-04-11T03:57:39.392Z,5.91
2019-04-11T04:00:06.555Z,5.92
2019-04-11T04:02:34.691Z,5.87
2019-04-11T04:05:01.552Z,5.92
2019-04-11T04:07:29.572Z,5.96
2019-04-11T04:09:56.234Z,5.86
2019-04-11T04:12:22.721Z,5.78
2019-04-11T04:17:36.175Z,5.45
2019-04-11T04:20:12.899Z,5.34
2019-04-11T04:22:42.081Z,5.39
2019-04-11T04:25:10.316Z,5.26
2019-04-11T04:27:36.591Z,5.29
2019-04-11T04:30:05.905Z,5.25
2019-04-11T04:32:32.975Z,5.29
2019-04-11T04:35:01.111Z,5.10
2019-04-11T04:37:29.449Z,5.13
2019-04-11T04:40:16.304Z,5.13
2019-04-11T04:42:31.466Z,5.03
2019-04-11T04:44:53.701Z,5.06
2019-04-11T04:47:25.085Z,5.19
2019-04-11T04:49:48.677Z,5.26
2019-04-11T04:52:16.302Z,5.22
2019-04-11T04:54:44.322Z,5.24
2019-04-11T04:57:13.010Z,5.25
2019-04-11T04:59:40.652Z,5.24
2019-04-11T05:02:08.196Z,5.02
2019-04-11T05:04:36.058Z,4.94
2019-04-11T05:07:03.265Z,4.89
2019-04-11T05:09:29.863Z,4.60
2019-04-11T05:11:56.115Z,4.45
2019-04-11T05:14:23.337Z,4.50
2019-04-11T05:16:50.475Z,4.62
2019-04-11T05:19:17.017Z,4.71
2019-04-11T05:21:43.637Z,4.75
2019-04-11T05:24:10.343Z,4.58
2019-04-11T05:26:36.878Z,4.49
2019-04-11T05:29:03.047Z,4.43
2019-04-11T05:31:30.115Z,4.51
2019-04-11T05:33:56.514Z,4.63
2019-04-11T05:36:22.793Z,4.65
2019-04-11T05:38:48.965Z,4.67
2019-04-11T05:41:15.384Z,4.65
2019-04-11T05:43:41.856Z,4.56
2019-04-11T05:46:23.998Z,4.66
2019-04-11T05:48:47.232Z,4.72
2019-04-11T05:51:13.428Z,4.79
2019-04-11T05:53:39.658Z,4.70
2019-04-11T05:56:07.103Z,4.55
2019-04-11T05:58:34.908Z,4.47
2019-04-11T06:01:05.578Z,4.46
2019-04-11T06:03:32.353Z,4.47
2019-04-11T06:06:18.472Z,4.37
2019-04-11T06:08:44.680Z,4.44
2019-04-11T06:11:16.482Z,4.53
2019-04-11T06:16:36.072Z,4.66
2019-04-11T06:18:54.366Z,4.81
2019-04-11T06:24:20.224Z,4.62
2019-04-11T06:32:40.926Z,4.37
2019-04-11T06:40:46.087Z,4.16
2019-04-11T06:43:14.190Z,4.06
2019-04-11T06:45:46.129Z,4.11
2019-04-11T06:48:17.829Z,4.09
2019-04-11T06:53:38.465Z,4.02
2019-04-11T06:56:18.950Z,4.06
2019-04-11T06:58:54.118Z,4.21
2019-04-11T07:01:23.221Z,4.35
2019-04-11T07:03:51.261Z,4.37
2019-04-11T07:06:19.586Z,4.34
2019-04-11T07:11:40.670Z,4.27
2019-04-11T07:17:15.478Z,4.27
2019-04-11T07:19:46.558Z,4.38
2019-04-11T07:22:32.671Z,4.30
2019-04-11T07:25:18.121Z,4.23
2019-04-11T07:28:03.698Z,4.12
2019-04-11T07:30:49.494Z,4.16
2019-04-11T07:36:34.057Z,4.04
2019-04-11T07:39:20.214Z,4.04
2019-04-11T07:41:52.091Z,4.04
2019-04-11T07:44:20.406Z,4.06
2019-04-11T07:47:13.609Z,4.14
2019-04-11T07:49:47.252Z,4.20
2019-04-11T07:52:17.855Z,4.16
2019-04-11T07:54:43.891Z,4.18
2019-04-11T07:57:12.926Z,4.08
2019-04-11T08:08:41.212Z,4.28
2019-04-11T08:11:09.583Z,4.35
2019-04-11T08:16:31.400Z,4.29
2019-04-11T08:19:03.620Z,4.22
2019-04-11T08:21:48.601Z,4.06
2019-04-11T08:24:22.518Z,4.02
2019-04-11T08:29:30.549Z,4.16
2019-04-11T08:32:04.683Z,4.09
2019-04-11T08:34:32.705Z,4.06
2019-04-11T08:37:17.262Z,4.05
2019-04-11T08:39:43.389Z,4.01
2019-04-11T08:42:21.334Z,3.97
2019-04-11T08:44:48.046Z,3.89
2019-04-11T08:47:14.241Z,3.95
2019-04-11T08:49:42.176Z,3.92
2019-04-11T08:52:10.246Z,4.00
2019-04-11T08:54:55.698Z,3.89
2019-04-11T08:57:29.745Z,3.92
2019-04-11T09:00:02.098Z,3.90
2019-04-11T09:02:31.057Z,3.95
2019-04-11T09:05:07.050Z,3.96
2019-04-11T09:07:29.655Z,4.00
2019-04-11T09:12:44.809Z,4.09
2019-04-11T09:15:29.686Z,4.18
2019-04-11T09:18:04.207Z,4.17
2019-04-11T09:20:29.829Z,4.26
2019-04-11T09:22:57.829Z,4.34
2019-04-11T09:25:43.493Z,4.37
2019-04-11T09:28:15.380Z,4.38
2019-04-11T09:31:01.063Z,4.37
2019-04-11T09:33:47.050Z,4.36
2019-04-11T09:39:28.864Z,4.45
2019-04-11T09:42:11.906Z,4.47
2019-04-11T09:44:49.157Z,4.54
2019-04-11T09:47:34.128Z,4.53
2019-04-11T09:50:18.878Z,4.57
2019-04-11T09:52:50.000Z,4.66
2019-04-11T09:55:34.555Z,4.74
2019-04-11T09:58:01.684Z,4.67
2019-04-11T10:00:47.437Z,4.72
2019-04-11T10:03:21.366Z,4.82
2019-04-11T10:05:50.281Z,4.73
2019-04-11T10:08:28.166Z,4.67
2019-04-11T10:13:59.455Z,4.67
2019-04-11T10:16:28.372Z,4.76
2019-04-11T10:18:57.694Z,4.69
2019-04-11T10:21:25.930Z,4.64
2019-04-11T10:24:11.718Z,4.59
2019-04-11T10:26:44.442Z,4.64
2019-04-11T10:29:30.427Z,4.73
2019-04-11T10:31:57.439Z,4.79
2019-04-11T10:37:20.746Z,4.83
2019-04-11T10:39:51.786Z,4.79
2019-04-11T10:42:18.158Z,4.80
2019-04-11T10:45:02.829Z,4.83
2019-04-11T10:50:15.370Z,4.84
2019-04-11T10:52:44.605Z,4.77
2019-04-11T10:55:15.663Z,4.64
2019-04-11T10:57:46.680Z,4.61
2019-04-11T11:00:15.670Z,4.63
2019-04-11T11:03:00.559Z,4.61
2019-04-11T11:05:28.602Z,4.62
2019-04-11T11:07:57.171Z,4.59
2019-04-11T11:10:25.779Z,4.56
2019-04-11T11:12:54.004Z,4.44
2019-04-11T11:15:23.292Z,4.51
2019-04-11T11:18:27.172Z,4.57
2019-04-11T11:20:38.585Z,4.54
2019-04-11T11:23:07.741Z,4.54
2019-04-11T11:25:33.034Z,4.64
2019-04-11T11:28:00.233Z,4.68
2019-04-11T11:30:37.840Z,4.57
2019-04-11T11:33:05.602Z,4.53
2019-04-11T11:38:26.639Z,4.45
2019-04-11T11:41:03.902Z,4.52
2019-04-11T11:43:32.863Z,4.57
2019-04-11T11:46:19.366Z,4.58
2019-04-11T11:51:33.801Z,4.51
2019-04-11T11:54:11.500Z,4.45
2019-04-11T11:56:40.235Z,4.46
2019-04-11T11:59:25.175Z,4.41
2019-04-11T12:04:50.208Z,4.34
2019-04-11T12:10:17.896Z,4.18
2019-04-11T12:12:46.405Z,4.15
2019-04-11T12:15:22.456Z,4.27
2019-04-11T12:20:49.341Z,4.32
2019-04-11T12:23:46.450Z,4.33
2019-04-11T12:26:05.326Z,4.30
2019-04-11T12:31:32.056Z,4.35
2019-04-11T12:34:16.555Z,4.43
2019-04-11T12:36:50.133Z,4.46
2019-04-11T12:39:24.546Z,4.56
2019-04-11T12:41:59.495Z,4.63
2019-04-11T12:47:19.517Z,4.67
2019-04-11T12:49:52.715Z,4.62
2019-04-11T12:52:20.437Z,4.51
2019-04-11T12:54:54.467Z,4.48
2019-04-11T12:57:39.142Z,4.39
2019-04-11T13:00:16.157Z,4.38
2019-04-11T13:03:00.547Z,4.39
2019-04-11T13:05:53.817Z,4.43
2019-04-11T13:08:33.918Z,4.41
2019-04-11T13:11:06.329Z,4.34
2019-04-11T13:13:34.405Z,4.34
2019-04-11T13:16:12.072Z,4.27
2019-04-11T13:18:50.540Z,4.27
2019-04-11T13:21:18.626Z,4.15
2019-04-11T13:26:53.681Z,3.93
2019-04-11T13:29:21.606Z,3.96
2019-04-11T13:31:52.651Z,3.99
2019-04-11T13:34:19.780Z,3.99
2019-04-11T13:36:50.405Z,3.84
2019-04-11T13:39:16.667Z,3.79
2019-04-11T13:41:44.679Z,3.83
2019-04-11T13:44:12.730Z,3.89
2019-04-11T13:46:57.122Z,3.92
2019-04-11T13:49:34.477Z,3.99
2019-04-11T13:52:05.755Z,3.91
2019-04-11T13:54:45.648Z,3.80
2019-04-11T14:00:30.771Z,3.58
2019-04-11T14:03:02.141Z,3.53
2019-04-11T14:05:30.175Z,3.52
2019-04-11T14:07:57.919Z,3.54
2019-04-11T14:10:24.045Z,3.58
2019-04-11T14:12:52.098Z,3.65
2019-04-11T14:15:22.381Z,3.67
2019-04-11T14:17:53.230Z,3.76
2019-04-11T14:23:23.528Z,3.85
2019-04-11T14:28:56.962Z,3.86
2019-04-11T14:31:36.988Z,3.87
2019-04-11T14:37:00.625Z,3.73
2019-04-11T14:39:28.697Z,3.78
2019-04-11T14:42:05.488Z,3.85
2019-04-11T14:44:33.602Z,3.91
2019-04-11T14:47:01.668Z,3.89
2019-04-11T14:49:28.307Z,3.93
2019-04-11T14:52:16.914Z,3.98
2019-04-11T14:54:43.104Z,4.00
2019-04-11T14:57:11.044Z,4.01
2019-04-11T14:59:39.106Z,4.03
2019-04-11T15:02:19.060Z,4.05
2019-04-11T15:04:58.812Z,4.07
2019-04-11T15:07:24.985Z,4.05
2019-04-11T15:10:01.881Z,3.99
2019-04-11T15:12:32.483Z,3.98
2019-04-11T15:15:12.509Z,4.00
2019-04-11T15:17:40.548Z,4.04
2019-04-11T15:20:15.553Z,4.04
2019-04-11T15:22:46.550Z,3.94
2019-04-11T15:25:14.576Z,3.82
2019-04-11T15:30:32.079Z,3.66
2019-04-11T15:33:05.788Z,3.65
2019-04-11T15:35:31.853Z,3.71
2019-04-11T15:40:45.437Z,3.80
2019-04-11T15:43:28.635Z,3.78
2019-04-11T15:46:01.285Z,3.73
2019-04-11T15:51:19.531Z,3.69
2019-04-11T15:53:47.573Z,3.71
2019-04-11T15:56:32.537Z,3.72
2019-04-11T15:59:00.599Z,3.70
2019-04-11T16:01:47.144Z,3.65
2019-04-11T16:04:17.573Z,3.62
2019-04-11T16:07:02.201Z,3.62
2019-04-11T16:09:28.218Z,3.66
2019-04-11T16:11:58.917Z,3.61
2019-04-11T16:14:24.926Z,3.57
2019-04-11T16:16:53.029Z,3.57
2019-04-11T16:19:36.209Z,3.57
2019-04-11T16:22:10.232Z,3.56
2019-04-11T16:24:41.094Z,3.51
2019-04-11T16:27:25.709Z,3.49
2019-04-11T16:29:53.688Z,3.49
2019-04-11T16:32:19.812Z,3.47
2019-04-11T16:34:54.371Z,3.44
2019-04-11T16:37:19.389Z,3.43
2019-04-11T16:40:05.665Z,3.38
2019-04-11T16:42:33.714Z,3.37
2019-04-11T16:45:01.769Z,3.35
2019-04-11T16:47:48.006Z,3.37
2019-04-11T16:50:14.166Z,3.38
2019-04-11T16:52:40.303Z,3.40
2019-04-11T16:55:09.799Z,3.42
2019-04-11T16:57:34.567Z,3.42
2019-04-11T17:00:00.694Z,3.39
2019-04-11T17:02:28.960Z,3.41
2019-04-11T17:04:55.894Z,3.37
2019-04-11T17:07:26.143Z,3.42
2019-04-11T17:09:57.493Z,3.44
2019-04-11T17:12:26.307Z,3.46
2019-04-11T17:14:51.780Z,3.43
2019-04-11T17:17:17.936Z,3.41
2019-04-11T17:19:44.057Z,3.41
2019-04-11T17:22:10.081Z,3.40
2019-04-11T17:24:36.226Z,3.40
2019-04-11T17:27:02.357Z,3.39
2019-04-11T17:29:28.381Z,3.39
2019-04-11T17:31:56.135Z,3.38
2019-04-11T17:34:22.571Z,3.37
2019-04-11T17:36:48.820Z,3.37
2019-04-11T17:39:15.049Z,3.35
2019-04-11T17:41:42.034Z,3.33
2019-04-11T17:44:08.736Z,3.30
2019-04-11T17:46:34.871Z,3.27
2019-04-11T17:49:00.995Z,3.29
2019-04-11T17:51:27.179Z,3.28
2019-04-11T17:53:55.497Z,3.29
2019-04-11T17:56:24.656Z,3.28
2019-04-11T17:58:49.306Z,3.31
2019-04-11T18:01:15.581Z,3.32
2019-04-11T18:03:42.610Z,3.31
2019-04-11T18:06:08.960Z,3.27
2019-04-11T18:08:35.096Z,3.27
2019-04-11T18:11:01.230Z,3.29
2019-04-11T18:13:30.622Z,3.29
2019-04-11T18:15:55.398Z,3.30
2019-04-11T18:18:21.457Z,3.27
2019-04-11T18:20:47.511Z,3.26
2019-04-11T18:23:13.629Z,3.24
2019-04-11T18:25:39.784Z,3.26
2019-04-11T18:28:05.843Z,3.23
2019-04-11T18:30:31.870Z,3.22
2019-04-11T18:32:58.004Z,3.13
2019-04-11T18:35:24.056Z,3.13
2019-04-11T18:37:50.220Z,3.05
2019-04-11T18:40:16.674Z,3.01
2019-04-11T18:42:42.954Z,3.02
2019-04-11T18:45:09.168Z,2.99
2019-04-11T18:47:35.338Z,3.03
2019-04-11T18:50:02.057Z,3.01
2019-04-11T18:52:29.126Z,2.94
2019-04-11T18:54:55.332Z,2.87
2019-04-11T18:57:21.455Z,2.84
2019-04-11T18:59:47.573Z,2.83
2019-04-11T19:02:13.694Z,2.91
2019-04-11T19:04:42.150Z,2.95
2019-04-11T19:07:08.099Z,3.01
2019-04-11T19:09:34.437Z,2.85
2019-04-11T19:12:00.797Z,2.87
2019-04-11T19:14:26.926Z,2.93
2019-04-11T19:16:53.160Z,2.96
2019-04-11T19:19:19.399Z,2.83
2019-04-11T19:21:45.948Z,2.84
2019-04-11T19:24:13.016Z,2.79
2019-04-11T19:26:39.299Z,2.87
2019-04-11T19:29:06.289Z,2.88
2019-04-11T19:31:32.570Z,2.83
2019-04-11T19:33:58.719Z,2.87
2019-04-11T19:36:24.851Z,2.85
2019-04-11T19:38:50.973Z,2.87
2019-04-11T19:41:18.225Z,2.81
2019-04-11T19:43:44.444Z,2.74
2019-04-11T19:46:10.584Z,2.72
2019-04-11T19:48:36.699Z,2.77
2019-04-11T19:51:02.824Z,2.91
2019-04-11T19:53:32.759Z,3.03
2019-04-11T19:55:58.812Z,3.11
2019-04-11T19:58:26.857Z,3.17
2019-04-11T20:00:53.960Z,3.14
2019-04-11T20:03:21.859Z,3.00
2019-04-11T20:05:48.039Z,3.02
2019-04-11T20:08:14.060Z,3.08
2019-04-11T20:10:40.104Z,3.19
2019-04-11T20:13:06.231Z,3.16
2019-04-11T20:15:37.232Z,3.19
2019-04-11T20:18:00.358Z,3.20
2019-04-11T20:20:26.526Z,3.19
2019-04-11T20:22:58.960Z,3.15
2019-04-11T20:25:20.685Z,3.16
2019-04-11T20:27:48.159Z,3.08
2019-04-11T20:30:14.767Z,3.03
2019-04-11T20:32:40.922Z,3.02
2019-04-11T20:35:09.490Z,3.11
2019-04-11T20:37:39.453Z,3.12
2019-04-11T20:40:06.034Z,3.09
2019-04-11T20:42:32.146Z,3.15
2019-04-11T20:44:59.087Z,3.18
2019-04-11T20:47:25.338Z,3.26
2019-04-11T20:49:51.512Z,3.31
2019-04-11T20:52:17.629Z,3.37
2019-04-11T20:54:45.268Z,3.39
2019-04-11T20:57:12.163Z,3.43
2019-04-11T20:59:42.309Z,3.38
2019-04-11T21:02:06.994Z,3.18
2019-04-11T21:04:33.028Z,3.12
2019-04-11T21:07:01.801Z,3.17
2019-04-11T21:09:27.205Z,3.27
2019-04-11T21:11:53.267Z,3.38
2019-04-11T21:14:19.290Z,3.40
2019-04-11T21:16:45.376Z,3.46
2019-04-11T21:19:11.497Z,3.51
2019-04-11T21:21:37.520Z,3.51
2019-04-11T21:24:03.655Z,3.33
2019-04-11T21:26:29.792Z,3.25
2019-04-11T21:28:58.762Z,3.25
2019-04-11T21:31:23.834Z,3.20
2019-04-11T21:33:49.990Z,3.16
2019-04-11T21:36:16.120Z,3.12
2019-04-11T21:38:42.066Z,3.11
2019-04-11T21:41:08.090Z,3.19
2019-04-11T21:43:36.197Z,3.29
2019-04-11T21:46:04.098Z,3.42
2019-04-11T21:48:30.105Z,3.42
2019-04-11T21:50:56.272Z,3.35
2019-04-11T21:53:22.411Z,3.26
2019-04-11T21:55:48.555Z,3.32
2019-04-11T21:58:14.573Z,3.43
2019-04-11T22:00:44.405Z,3.50
2019-04-11T22:03:10.534Z,3.39
2019-04-11T22:05:36.969Z,3.33
2019-04-11T22:08:04.013Z,3.22
2019-04-11T22:10:30.137Z,3.06
2019-04-11T22:12:56.304Z,2.98
2019-04-11T22:15:22.435Z,2.95
2019-04-11T22:17:48.654Z,3.09
2019-04-11T22:20:16.596Z,3.20
2019-04-11T22:22:42.801Z,3.12
2019-04-11T22:25:09.103Z,2.86
2019-04-11T22:27:35.226Z,2.81
2019-04-11T22:30:01.570Z,2.92
2019-04-11T22:32:27.696Z,2.93
2019-04-11T22:34:53.831Z,3.00
2019-04-11T22:37:19.899Z,3.00
2019-04-11T22:39:46.030Z,2.92
2019-04-11T22:42:12.251Z,2.70
2019-04-11T22:44:38.674Z,2.78
2019-04-11T22:47:07.554Z,2.75
2019-04-11T22:49:32.821Z,2.72
2019-04-11T22:51:58.992Z,2.74
2019-04-11T22:54:25.132Z,2.78
2019-04-11T22:56:51.254Z,2.85
2019-04-11T22:59:17.374Z,2.93
2019-04-11T23:01:46.802Z,2.98
2019-04-11T23:04:12.038Z,3.04
2019-04-11T23:06:38.159Z,2.93
2019-04-11T23:09:05.187Z,2.87
2019-04-11T23:11:31.232Z,2.91
2019-04-11T23:13:57.287Z,2.92
2019-04-11T23:16:23.721Z,2.91
2019-04-11T23:18:49.743Z,2.97
2019-04-11T23:21:15.876Z,2.90
2019-04-11T23:23:42.003Z,2.87
2019-04-11T23:26:08.166Z,2.92
2019-04-11T23:28:34.092Z,2.98
2019-04-11T23:31:00.136Z,3.00
2019-04-11T23:33:26.266Z,3.08
2019-04-11T23:35:52.293Z,2.97
2019-04-11T23:38:18.423Z,2.85
2019-04-11T23:40:44.457Z,2.76
2019-04-11T23:43:10.576Z,2.69
2019-04-11T23:45:36.696Z,2.62
2019-04-11T23:48:02.966Z,2.58
2019-04-11T23:50:29.092Z,2.69
2019-04-11T23:52:57.924Z,2.78
2019-04-11T23:55:23.293Z,2.94
2019-04-11T23:57:49.414Z,2.95
